createdAt,value
2023-02-16T00:01:43.731Z,-1.36
2023-02-16T00:04:28.827Z,-1.39
2023-02-16T00:06:56.916Z,-1.16
2023-02-16T00:09:24.408Z,-1.06
2023-02-16T00:12:11.822Z,-1.22
2023-02-16T00:14:39.604Z,-1.09
2023-02-16T00:17:06.716Z,-1.06
2023-02-16T00:19:39.787Z,-1.02
2023-02-16T00:22:07.666Z,-0.99
2023-02-16T00:24:34.667Z,-0.97
2023-02-16T00:27:02.235Z,-0.98
2023-02-16T00:29:34.238Z,-0.96
2023-02-16T00:32:03.617Z,-0.87
2023-02-16T00:34:33.744Z,-0.95
2023-02-16T00:37:10.934Z,-0.88
2023-02-16T00:39:38.592Z,-0.88
2023-02-16T00:42:10.740Z,-1.18
2023-02-16T00:44:42.300Z,-1.38
2023-02-16T00:47:19.908Z,-1.32
2023-02-16T00:49:49.243Z,-1.24
2023-02-16T00:52:29.344Z,-1.07
2023-02-16T00:54:57.807Z,-1.02
2023-02-16T00:57:25.819Z,-0.96
2023-02-16T01:00:00.491Z,-0.93
2023-02-16T01:02:27.745Z,-0.90
2023-02-16T01:04:56.144Z,-0.88
2023-02-16T01:07:42.309Z,-0.79
2023-02-16T01:10:30.561Z,-0.82
2023-02-16T01:12:57.332Z,-0.88
2023-02-16T01:15:25.798Z,-0.82
2023-02-16T01:17:54.045Z,-1.02
2023-02-16T01:20:24.745Z,-1.01
2023-02-16T01:22:51.812Z,-0.93
2023-02-16T01:25:18.653Z,-0.86
2023-02-16T01:28:22.394Z,-0.86
2023-02-16T01:31:13.140Z,-1.01
2023-02-16T01:34:00.126Z,-0.90
2023-02-16T01:36:49.345Z,-1.03
2023-02-16T01:39:35.983Z,-1.13
2023-02-16T01:42:31.605Z,-1.00
2023-02-16T01:45:03.989Z,-1.02
2023-02-16T01:47:41.861Z,-1.00
2023-02-16T01:50:35.749Z,-1.16
2023-02-16T01:53:12.741Z,-1.02
2023-02-16T01:55:44.357Z,-1.32
2023-02-16T01:58:42.566Z,-1.39
2023-02-16T02:01:40.108Z,-1.39
2023-02-16T02:04:42.909Z,-1.44
2023-02-16T02:07:15.359Z,-1.55
2023-02-16T02:10:08.635Z,-1.39
2023-02-16T02:12:45.861Z,-1.25
2023-02-16T02:15:16.071Z,-1.19
2023-02-16T02:17:42.910Z,-1.13
2023-02-16T02:20:20.294Z,-1.11
2023-02-16T02:23:31.450Z,-1.21
2023-02-16T02:26:17.755Z,-1.10
2023-02-16T02:29:34.322Z,-1.07
2023-02-16T02:32:34.564Z,-1.15
2023-02-16T02:35:22.677Z,-1.10
2023-02-16T02:37:55.360Z,-1.06
2023-02-16T02:40:46.796Z,-1.00
2023-02-16T02:43:31.126Z,-1.36
2023-02-16T02:46:12.834Z,-1.33
2023-02-16T02:48:39.436Z,-1.10
2023-02-16T02:51:28.130Z,-1.34
2023-02-16T02:54:38.479Z,-1.37
2023-02-16T02:57:36.702Z,-1.34
2023-02-16T03:00:25.262Z,-1.18
2023-02-16T03:02:57.131Z,-1.13
2023-02-16T03:05:26.005Z,-1.12
2023-02-16T03:07:57.689Z,-1.22
2023-02-16T03:10:47.086Z,-1.50
2023-02-16T03:13:20.665Z,-1.55
2023-02-16T03:15:50.112Z,-1.55
2023-02-16T03:18:36.061Z,-1.34
2023-02-16T03:21:22.552Z,-1.41
2023-02-16T03:24:10.118Z,-1.39
2023-02-16T03:26:56.840Z,-1.40
2023-02-16T03:29:26.412Z,-1.43
2023-02-16T03:31:55.233Z,-1.55
2023-02-16T03:34:22.147Z,-1.71
2023-02-16T03:36:52.115Z,-1.49
2023-02-16T03:39:19.844Z,-1.81
2023-02-16T03:41:51.311Z,-1.65
2023-02-16T03:44:18.159Z,-1.64
2023-02-16T03:46:46.013Z,-1.50
2023-02-16T03:49:12.751Z,-1.54
2023-02-16T03:51:39.502Z,-1.44
2023-02-16T03:54:06.116Z,-1.40
2023-02-16T03:56:32.911Z,-1.62
2023-02-16T03:58:59.953Z,-1.41
2023-02-16T04:01:26.850Z,-1.27
2023-02-16T04:03:53.309Z,-1.33
2023-02-16T04:06:19.802Z,-1.66
2023-02-16T04:08:47.041Z,-1.46
2023-02-16T04:11:32.226Z,-1.45
2023-02-16T04:13:59.008Z,-1.34
2023-02-16T04:16:25.433Z,-1.39
2023-02-16T04:18:52.480Z,-1.47
2023-02-16T04:21:18.967Z,-1.29
2023-02-16T04:23:45.759Z,-1.42
2023-02-16T04:26:12.594Z,-1.49
2023-02-16T04:28:39.064Z,-1.45
2023-02-16T04:31:06.190Z,-1.47
2023-02-16T04:33:33.149Z,-1.23
2023-02-16T04:36:00.142Z,-1.33
2023-02-16T04:38:26.656Z,-1.30
2023-02-16T04:40:53.527Z,-1.25
2023-02-16T04:43:20.027Z,-1.29
2023-02-16T04:45:47.153Z,-1.36
2023-02-16T04:48:13.666Z,-1.22
2023-02-16T04:50:40.110Z,-1.30
2023-02-16T04:53:07.582Z,-1.24
2023-02-16T04:55:34.001Z,-1.13
2023-02-16T04:58:01.186Z,-1.22
2023-02-16T05:00:28.395Z,-1.14
2023-02-16T05:02:54.829Z,-1.16
2023-02-16T05:05:21.725Z,-1.02
2023-02-16T05:07:48.141Z,-1.05
2023-02-16T05:10:14.744Z,-1.01
2023-02-16T05:13:00.855Z,-1.02
2023-02-16T05:15:27.282Z,-1.00
2023-02-16T05:17:54.078Z,-1.01
2023-02-16T05:20:40.853Z,-0.96
2023-02-16T05:23:07.739Z,-0.99
2023-02-16T05:25:34.224Z,-0.90
2023-02-16T05:28:00.993Z,-0.89
2023-02-16T05:30:27.537Z,-0.92
2023-02-16T05:32:54.513Z,-0.97
2023-02-16T05:35:20.942Z,-0.87
2023-02-16T05:37:47.809Z,-0.83
2023-02-16T05:40:14.335Z,-0.92
2023-02-16T05:42:40.794Z,-0.85
2023-02-16T05:45:07.806Z,-0.79
2023-02-16T05:47:34.276Z,-0.80
2023-02-16T05:50:00.945Z,-0.82
2023-02-16T05:52:27.444Z,-0.80
2023-02-16T05:54:54.197Z,-0.77
2023-02-16T05:57:21.015Z,-0.75
2023-02-16T05:59:47.735Z,-0.75
2023-02-16T06:02:14.487Z,-0.72
2023-02-16T06:04:41.461Z,-0.77
2023-02-16T06:07:07.943Z,-0.75
2023-02-16T06:09:34.418Z,-0.76
2023-02-16T06:12:01.153Z,-0.70
2023-02-16T06:14:28.108Z,-0.71
2023-02-16T06:16:56.709Z,-0.73
2023-02-16T06:19:23.182Z,-0.69
2023-02-16T06:21:49.882Z,-0.68
2023-02-16T06:24:16.736Z,-0.62
2023-02-16T06:26:43.743Z,-0.67
2023-02-16T06:29:11.030Z,-0.71
2023-02-16T06:31:38.049Z,-0.69
2023-02-16T06:34:05.384Z,-0.71
2023-02-16T06:36:32.723Z,-0.70
2023-02-16T06:39:00.255Z,-0.63
2023-02-16T06:41:35.789Z,-0.63
2023-02-16T06:44:05.294Z,-0.70
2023-02-16T06:46:32.317Z,-0.65
2023-02-16T06:48:59.334Z,-0.61
2023-02-16T06:51:26.658Z,-0.67
2023-02-16T06:53:53.169Z,-0.66
2023-02-16T06:56:19.656Z,-0.71
2023-02-16T06:58:46.248Z,-0.60
2023-02-16T07:01:13.086Z,-0.60
2023-02-16T07:03:39.873Z,-0.58
2023-02-16T07:06:06.760Z,-0.58
2023-02-16T07:08:34.968Z,-0.60
2023-02-16T07:11:02.275Z,-0.51
2023-02-16T07:13:28.833Z,-0.48
2023-02-16T07:15:57.670Z,-0.54
2023-02-16T07:18:24.073Z,-0.47
2023-02-16T07:20:50.797Z,-0.39
2023-02-16T07:23:17.887Z,-0.38
2023-02-16T07:25:44.371Z,-0.39
2023-02-16T07:28:10.865Z,-0.37
2023-02-16T07:30:37.435Z,-0.37
2023-02-16T07:33:04.309Z,-0.31
2023-02-16T07:35:30.976Z,-0.30
2023-02-16T07:37:57.797Z,-0.26
2023-02-16T07:40:24.593Z,-0.29
2023-02-16T07:42:51.340Z,-0.24
2023-02-16T07:45:17.904Z,-0.21
2023-02-16T07:47:44.967Z,-0.28
2023-02-16T07:50:11.824Z,-0.20
2023-02-16T07:52:39.529Z,-0.20
2023-02-16T07:55:07.074Z,-0.09
2023-02-16T07:57:33.676Z,-0.01
2023-02-16T08:00:00.167Z,0.09
2023-02-16T08:02:27.431Z,0.15
2023-02-16T08:04:54.287Z,0.30
2023-02-16T08:07:21.586Z,0.40
2023-02-16T08:09:49.171Z,0.57
2023-02-16T08:12:16.501Z,0.71
2023-02-16T08:14:45.070Z,0.79
2023-02-16T08:17:16.083Z,0.93
2023-02-16T08:19:43.615Z,1.00
2023-02-16T08:22:10.683Z,1.15
2023-02-16T08:24:37.701Z,1.21
2023-02-16T08:27:05.813Z,1.27
2023-02-16T08:29:33.432Z,1.47
2023-02-16T08:32:01.264Z,1.47
2023-02-16T08:34:30.603Z,1.70
2023-02-16T08:36:57.472Z,1.83
2023-02-16T08:39:27.154Z,1.81
2023-02-16T08:41:55.817Z,1.81
2023-02-16T08:44:24.218Z,1.82
2023-02-16T08:46:56.645Z,1.88
2023-02-16T08:49:23.895Z,1.86
2023-02-16T08:51:54.591Z,1.97
2023-02-16T08:54:28.016Z,2.14
2023-02-16T08:56:56.025Z,2.29
2023-02-16T08:59:25.537Z,2.55
2023-02-16T09:01:54.127Z,2.65
2023-02-16T09:04:20.796Z,2.98
2023-02-16T09:06:52.294Z,2.88
2023-02-16T09:09:19.766Z,2.90
2023-02-16T09:11:46.329Z,3.02
2023-02-16T09:14:13.535Z,3.14
2023-02-16T09:16:45.818Z,3.17
2023-02-16T09:19:21.037Z,3.52
2023-02-16T09:21:48.544Z,3.52
2023-02-16T09:24:16.135Z,3.87
2023-02-16T09:26:44.486Z,4.08
2023-02-16T09:29:13.813Z,4.24
2023-02-16T09:31:42.790Z,4.19
2023-02-16T09:34:21.688Z,4.73
2023-02-16T09:36:49.834Z,4.90
2023-02-16T09:39:16.947Z,5.21
2023-02-16T09:42:03.813Z,5.19
2023-02-16T09:44:31.058Z,5.33
2023-02-16T09:46:59.806Z,5.46
2023-02-16T09:49:59.987Z,5.70
2023-02-16T09:52:35.930Z,5.77
2023-02-16T09:55:07.476Z,5.93
2023-02-16T09:57:55.474Z,6.04
2023-02-16T10:00:34.700Z,6.12
2023-02-16T10:03:19.465Z,6.18
2023-02-16T10:06:02.581Z,6.54
2023-02-16T10:08:45.664Z,6.50
2023-02-16T10:11:37.884Z,6.59
2023-02-16T10:14:34.757Z,6.87
2023-02-16T10:20:26.088Z,7.15
2023-02-16T10:23:25.467Z,7.17
2023-02-16T10:25:58.563Z,7.29
2023-02-16T10:28:39.275Z,7.79
2023-02-16T10:31:35.881Z,7.97
2023-02-16T10:34:24.380Z,8.05
2023-02-16T10:37:00.223Z,8.07
2023-02-16T10:39:32.857Z,8.33
2023-02-16T10:42:33.277Z,8.31
2023-02-16T10:45:15.611Z,8.73
2023-02-16T10:47:44.706Z,8.90
2023-02-16T10:50:22.888Z,8.74
2023-02-16T10:52:52.664Z,9.13
2023-02-16T10:55:19.264Z,8.97
2023-02-16T10:57:56.316Z,9.19
2023-02-16T11:00:59.071Z,9.28
2023-02-16T11:03:30.490Z,9.43
2023-02-16T11:06:12.344Z,9.25
2023-02-16T11:08:49.763Z,8.79
2023-02-16T11:11:17.258Z,8.83
2023-02-16T11:13:49.290Z,9.38
2023-02-16T11:16:22.185Z,9.18
2023-02-16T11:18:58.234Z,9.61
2023-02-16T11:21:43.657Z,9.74
2023-02-16T11:24:13.961Z,9.08
2023-02-16T11:26:40.810Z,9.07
2023-02-16T11:29:19.578Z,9.00
2023-02-16T11:31:46.457Z,9.28
2023-02-16T11:34:35.521Z,9.74
2023-02-16T11:37:13.438Z,9.83
2023-02-16T11:39:47.205Z,9.88
2023-02-16T11:42:32.300Z,9.98
2023-02-16T11:45:01.292Z,9.97
2023-02-16T11:47:37.574Z,9.92
2023-02-16T11:50:28.358Z,9.69
2023-02-16T11:53:15.545Z,9.58
2023-02-16T11:55:48.433Z,9.56
2023-02-16T11:58:26.423Z,9.61
2023-02-16T12:01:27.790Z,9.87
2023-02-16T12:04:00.338Z,10.11
2023-02-16T12:06:35.900Z,10.35
2023-02-16T12:09:34.965Z,10.44
2023-02-16T12:12:29.471Z,10.35
2023-02-16T12:15:15.086Z,10.55
2023-02-16T12:17:55.210Z,10.80
2023-02-16T12:20:33.869Z,10.66
2023-02-16T12:23:33.472Z,10.84
2023-02-16T12:26:17.728Z,10.74
2023-02-16T12:28:57.919Z,10.91
2023-02-16T12:31:34.375Z,10.69
2023-02-16T12:34:12.847Z,10.80
2023-02-16T12:36:52.683Z,10.74
2023-02-16T12:39:39.722Z,10.71
2023-02-16T12:42:26.755Z,10.45
2023-02-16T12:45:03.093Z,10.52
2023-02-16T12:47:35.329Z,10.60
2023-02-16T12:50:05.104Z,10.74
2023-02-16T12:52:44.764Z,10.89
2023-02-16T12:55:32.009Z,11.12
2023-02-16T12:58:08.127Z,10.94
2023-02-16T13:00:46.138Z,11.00
2023-02-16T13:03:20.047Z,11.11
2023-02-16T13:05:59.058Z,11.00
2023-02-16T13:08:43.656Z,11.27
2023-02-16T13:11:28.341Z,11.29
2023-02-16T13:14:02.301Z,11.15
2023-02-16T13:16:38.061Z,11.22
2023-02-16T13:19:05.564Z,11.37
2023-02-16T13:21:52.256Z,11.65
2023-02-16T13:24:37.750Z,11.41
2023-02-16T13:27:47.952Z,11.29
2023-02-16T13:31:22.463Z,11.42
2023-02-16T13:34:30.549Z,11.44
2023-02-16T13:37:19.027Z,11.47
2023-02-16T13:40:16.213Z,11.55
2023-02-16T13:42:57.408Z,11.46
2023-02-16T13:45:30.068Z,11.47
2023-02-16T13:47:58.176Z,11.38
2023-02-16T13:50:33.070Z,11.42
2023-02-16T13:53:17.318Z,11.49
2023-02-16T13:55:47.225Z,11.50
2023-02-16T13:58:14.399Z,11.50
2023-02-16T14:00:47.981Z,11.57
2023-02-16T14:03:19.898Z,11.56
2023-02-16T14:05:55.005Z,11.62
2023-02-16T14:08:30.210Z,11.65
2023-02-16T14:11:09.865Z,11.75
2023-02-16T14:13:39.272Z,11.83
2023-02-16T14:16:25.183Z,11.94
2023-02-16T14:18:57.078Z,12.00
2023-02-16T14:21:45.332Z,11.89
2023-02-16T14:24:25.994Z,11.94
2023-02-16T14:26:59.379Z,11.94
2023-02-16T14:29:31.643Z,11.88
2023-02-16T14:32:04.427Z,11.98
2023-02-16T14:34:38.466Z,12.04
2023-02-16T14:37:27.916Z,12.11
2023-02-16T14:40:07.828Z,12.07
2023-02-16T14:42:36.096Z,12.08
2023-02-16T14:45:44.742Z,12.04
2023-02-16T14:48:28.865Z,11.97
2023-02-16T14:51:11.209Z,11.96
2023-02-16T14:54:07.293Z,11.96
2023-02-16T14:56:49.452Z,11.93
2023-02-16T14:59:39.145Z,11.92
2023-02-16T15:02:41.434Z,11.85
2023-02-16T15:05:20.511Z,11.88
2023-02-16T15:07:51.534Z,11.84
2023-02-16T15:10:26.520Z,11.88
2023-02-16T15:12:56.873Z,11.84
2023-02-16T15:15:40.675Z,11.85
2023-02-16T15:18:18.681Z,11.87
2023-02-16T15:20:49.202Z,11.89
2023-02-16T15:23:25.511Z,11.86
2023-02-16T15:26:04.118Z,11.87
2023-02-16T15:28:36.994Z,11.83
2023-02-16T15:31:06.698Z,11.77
2023-02-16T15:33:37.448Z,11.80
2023-02-16T15:36:11.876Z,11.74
2023-02-16T15:38:52.155Z,11.72
2023-02-16T15:41:51.404Z,11.63
2023-02-16T15:44:35.772Z,11.68
2023-02-16T15:47:23.228Z,11.67
2023-02-16T15:49:50.847Z,11.57
2023-02-16T15:52:23.007Z,11.50
2023-02-16T15:54:50.849Z,11.49
2023-02-16T15:57:32.472Z,11.45
2023-02-16T16:00:04.258Z,11.43
2023-02-16T16:02:43.925Z,11.39
2023-02-16T16:05:24.244Z,11.33
2023-02-16T16:07:56.333Z,11.29
2023-02-16T16:10:36.980Z,11.28
2023-02-16T16:13:06.653Z,11.28
2023-02-16T16:15:47.156Z,11.25
2023-02-16T16:18:32.374Z,11.21
2023-02-16T16:21:02.659Z,11.23
2023-02-16T16:23:29.807Z,11.18
2023-02-16T16:25:56.648Z,11.23
2023-02-16T16:28:26.992Z,11.20
2023-02-16T16:31:09.810Z,11.15
2023-02-16T16:33:53.018Z,11.17
2023-02-16T16:36:21.305Z,11.17
2023-02-16T16:38:48.126Z,11.11
2023-02-16T16:41:35.545Z,11.11
2023-02-16T16:44:40.141Z,11.06
2023-02-16T16:47:31.943Z,11.08
2023-02-16T16:50:39.498Z,11.06
2023-02-16T16:53:29.655Z,11.00
2023-02-16T16:56:16.457Z,10.95
2023-02-16T16:59:04.181Z,10.91
2023-02-16T17:01:53.082Z,10.91
2023-02-16T17:04:21.940Z,10.89
2023-02-16T17:06:48.451Z,10.85
2023-02-16T17:09:16.961Z,10.82
2023-02-16T17:11:43.727Z,10.82
2023-02-16T17:14:22.330Z,10.84
2023-02-16T17:16:51.862Z,10.79
2023-02-16T17:19:22.932Z,10.79
2023-02-16T17:21:50.303Z,10.79
2023-02-16T17:24:17.070Z,10.74
2023-02-16T17:26:43.659Z,10.71
2023-02-16T17:29:10.332Z,10.71
2023-02-16T17:31:36.985Z,10.66
2023-02-16T17:34:03.514Z,10.60
2023-02-16T17:36:30.375Z,10.62
2023-02-16T17:38:56.850Z,10.59
2023-02-16T17:41:27.151Z,10.56
2023-02-16T17:43:54.684Z,10.56
2023-02-16T17:46:23.557Z,10.54
2023-02-16T17:48:53.676Z,10.47
2023-02-16T17:51:22.607Z,10.42
2023-02-16T17:53:49.973Z,10.34
2023-02-16T17:56:20.203Z,10.28
2023-02-16T17:58:46.717Z,10.29
2023-02-16T18:01:15.388Z,10.27
2023-02-16T18:03:44.458Z,10.27
2023-02-16T18:06:16.223Z,10.20
2023-02-16T18:08:43.987Z,10.30
2023-02-16T18:11:12.333Z,10.31
2023-02-16T18:13:39.451Z,10.26
2023-02-16T18:16:08.047Z,10.24
2023-02-16T18:18:36.699Z,10.28
2023-02-16T18:21:03.468Z,10.21
2023-02-16T18:23:31.137Z,10.23
2023-02-16T18:25:57.722Z,10.18
2023-02-16T18:28:28.265Z,10.16
2023-02-16T18:30:55.715Z,10.14
2023-02-16T18:33:23.770Z,10.15
2023-02-16T18:35:53.092Z,10.16
2023-02-16T18:38:22.275Z,10.20
2023-02-16T18:40:50.110Z,10.23
2023-02-16T18:43:16.808Z,10.26
2023-02-16T18:45:43.614Z,10.26
2023-02-16T18:48:11.361Z,10.24
2023-02-16T18:50:37.853Z,10.22
2023-02-16T18:53:05.053Z,10.20
2023-02-16T18:55:34.114Z,10.24
2023-02-16T18:58:07.778Z,10.23
2023-02-16T19:00:37.870Z,10.21
2023-02-16T19:03:05.015Z,10.26
2023-02-16T19:05:33.285Z,10.30
2023-02-16T19:08:00.772Z,10.26
2023-02-16T19:10:28.140Z,10.25
2023-02-16T19:12:54.881Z,10.24
2023-02-16T19:15:21.750Z,10.30
2023-02-16T19:17:48.682Z,10.28
2023-02-16T19:20:18.277Z,10.30
2023-02-16T19:22:48.740Z,10.25
2023-02-16T19:25:15.311Z,10.32
2023-02-16T19:27:42.686Z,10.35
2023-02-16T19:30:10.738Z,10.40
2023-02-16T19:32:38.462Z,10.37
2023-02-16T19:35:05.086Z,10.35
2023-02-16T19:37:31.620Z,10.37
2023-02-16T19:39:58.058Z,10.38
2023-02-16T19:42:25.360Z,10.40
2023-02-16T19:44:52.014Z,10.36
2023-02-16T19:47:18.868Z,10.42
2023-02-16T19:49:45.709Z,10.38
2023-02-16T19:52:13.001Z,10.45
2023-02-16T19:54:39.519Z,10.54
2023-02-16T19:57:09.925Z,10.53
2023-02-16T19:59:36.413Z,10.48
2023-02-16T20:02:03.254Z,10.43
2023-02-16T20:04:30.095Z,10.50
2023-02-16T20:06:56.686Z,10.44
2023-02-16T20:09:24.475Z,10.40
2023-02-16T20:11:51.470Z,10.42
2023-02-16T20:14:18.762Z,10.43
2023-02-16T20:16:45.334Z,10.54
2023-02-16T20:19:15.189Z,10.56
2023-02-16T20:21:44.035Z,10.67
2023-02-16T20:24:14.652Z,10.70
2023-02-16T20:26:43.750Z,10.63
2023-02-16T20:29:12.835Z,10.61
2023-02-16T20:31:43.117Z,10.67
2023-02-16T20:34:10.964Z,10.61
2023-02-16T20:36:37.840Z,10.57
2023-02-16T20:39:07.061Z,10.59
2023-02-16T20:41:33.692Z,10.62
2023-02-16T20:44:00.523Z,10.62
2023-02-16T20:46:27.056Z,10.68
2023-02-16T20:48:54.186Z,10.65
2023-02-16T20:51:21.239Z,10.69
2023-02-16T20:53:49.033Z,10.59
2023-02-16T20:56:22.206Z,10.62
2023-02-16T20:58:52.229Z,10.61
2023-02-16T21:01:30.482Z,10.69
2023-02-16T21:03:59.273Z,10.63
2023-02-16T21:06:27.037Z,10.67
2023-02-16T21:08:54.435Z,10.61
2023-02-16T21:11:21.632Z,10.71
2023-02-16T21:13:48.254Z,10.67
2023-02-16T21:16:15.176Z,10.61
2023-02-16T21:18:41.912Z,10.65
2023-02-16T21:21:09.000Z,10.70
2023-02-16T21:23:36.493Z,10.67
2023-02-16T21:26:05.760Z,10.71
2023-02-16T21:28:32.817Z,10.64
2023-02-16T21:31:07.856Z,10.59
2023-02-16T21:33:37.107Z,10.64
2023-02-16T21:36:12.373Z,10.61
2023-02-16T21:38:40.339Z,10.59
2023-02-16T21:41:24.834Z,10.61
2023-02-16T21:44:00.677Z,10.60
2023-02-16T21:46:36.466Z,10.62
2023-02-16T21:49:04.608Z,10.64
2023-02-16T21:51:34.537Z,10.64
2023-02-16T21:54:01.149Z,10.62
2023-02-16T21:56:33.585Z,10.72
2023-02-16T21:59:00.926Z,10.74
2023-02-16T22:01:31.324Z,10.70
2023-02-16T22:03:59.705Z,10.64
2023-02-16T22:06:47.480Z,10.65
2023-02-16T22:09:17.659Z,10.73
2023-02-16T22:11:45.357Z,10.70
2023-02-16T22:14:12.499Z,10.72
2023-02-16T22:16:39.956Z,10.72
2023-02-16T22:19:10.968Z,10.71
2023-02-16T22:21:39.361Z,10.76
2023-02-16T22:24:06.773Z,10.73
2023-02-16T22:26:35.255Z,10.73
2023-02-16T22:29:04.322Z,10.71
2023-02-16T22:31:30.963Z,10.65
2023-02-16T22:34:03.277Z,10.63
2023-02-16T22:36:30.562Z,10.65
2023-02-16T22:38:57.214Z,10.67
2023-02-16T22:41:24.814Z,10.64
2023-02-16T22:43:54.127Z,10.65
2023-02-16T22:46:21.608Z,10.70
2023-02-16T22:48:48.212Z,10.63
2023-02-16T22:51:16.590Z,10.67
2023-02-16T22:53:43.761Z,10.65
2023-02-16T22:56:13.386Z,10.59
2023-02-16T22:58:40.307Z,10.58
2023-02-16T23:01:18.634Z,10.52
2023-02-16T23:03:50.015Z,10.49
2023-02-16T23:06:20.788Z,10.52
2023-02-16T23:08:51.958Z,10.60
2023-02-16T23:11:18.658Z,10.61
2023-02-16T23:13:45.100Z,10.57
2023-02-16T23:16:15.519Z,10.53
2023-02-16T23:18:43.633Z,10.59
2023-02-16T23:21:13.280Z,10.57
2023-02-16T23:23:40.230Z,10.54
2023-02-16T23:26:09.044Z,10.56
2023-02-16T23:28:37.239Z,10.53
2023-02-16T23:31:04.916Z,10.62
2023-02-16T23:33:31.857Z,10.59
2023-02-16T23:35:58.400Z,10.58
2023-02-16T23:38:25.585Z,10.57
2023-02-16T23:41:00.877Z,10.61
2023-02-16T23:43:27.602Z,10.59
2023-02-16T23:45:54.444Z,10.56
2023-02-16T23:48:22.455Z,10.62
2023-02-16T23:50:53.187Z,10.60
2023-02-16T23:53:21.247Z,10.65
2023-02-16T23:56:02.329Z,10.55
2023-02-16T23:58:47.137Z,10.53
